sensor_id;sensor_type;location;lat;lon;timestamp;P1;durP1;ratioP1;P2;durP2;ratioP2
13933;SDS011;7039;52.168;9.866;2022-08-19T00:00:35;18.83;;;13.07;;
13933;SDS011;7039;52.168;9.866;2022-08-19T00:03:01;16.80;;;12.53;;
13933;SDS011;7039;52.168;9.866;2022-08-19T00:05:28;16.07;;;13.00;;
13933;SDS011;7039;52.168;9.866;2022-08-19T00:07:55;13.80;;;12.37;;
13933;SDS011;7039;52.168;9.866;2022-08-19T00:10:22;17.77;;;12.13;;
13933;SDS011;7039;52.168;9.866;2022-08-19T00:12:50;23.17;;;13.90;;
13933;SDS011;7039;52.168;9.866;2022-08-19T00:15:19;20.27;;;12.63;;
13933;SDS011;7039;52.168;9.866;2022-08-19T00:17:47;17.60;;;12.47;;
13933;SDS011;7039;52.168;9.866;2022-08-19T00:20:14;16.33;;;12.17;;
13933;SDS011;7039;52.168;9.866;2022-08-19T00:22:42;25.17;;;13.20;;
13933;SDS011;7039;52.168;9.866;2022-08-19T00:25:10;18.87;;;13.03;;
13933;SDS011;7039;52.168;9.866;2022-08-19T00:27:37;20.80;;;12.30;;
13933;SDS011;7039;52.168;9.866;2022-08-19T00:30:06;17.17;;;11.93;;
13933;SDS011;7039;52.168;9.866;2022-08-19T00:32:35;18.10;;;12.07;;
13933;SDS011;7039;52.168;9.866;2022-08-19T00:35:02;14.97;;;11.63;;
13933;SDS011;7039;52.168;9.866;2022-08-19T00:37:30;20.47;;;12.87;;
13933;SDS011;7039;52.168;9.866;2022-08-19T00:39:58;19.00;;;11.73;;
13933;SDS011;7039;52.168;9.866;2022-08-19T00:42:24;19.67;;;13.87;;
13933;SDS011;7039;52.168;9.866;2022-08-19T00:44:53;16.80;;;12.27;;
13933;SDS011;7039;52.168;9.866;2022-08-19T00:47:21;15.33;;;12.00;;
13933;SDS011;7039;52.168;9.866;2022-08-19T00:49:48;15.37;;;11.80;;
13933;SDS011;7039;52.168;9.866;2022-08-19T00:52:17;16.73;;;12.13;;
13933;SDS011;7039;52.168;9.866;2022-08-19T00:54:47;18.27;;;11.57;;
13933;SDS011;7039;52.168;9.866;2022-08-19T00:57:15;17.97;;;11.97;;
13933;SDS011;7039;52.168;9.866;2022-08-19T00:59:46;14.40;;;11.40;;
13933;SDS011;7039;52.168;9.866;2022-08-19T01:02:18;16.80;;;11.80;;
13933;SDS011;7039;52.168;9.866;2022-08-19T01:04:46;19.47;;;12.23;;
13933;SDS011;7039;52.168;9.866;2022-08-19T01:07:12;20.57;;;12.77;;
13933;SDS011;7039;52.168;9.866;2022-08-19T01:09:39;18.90;;;12.77;;
13933;SDS011;7039;52.168;9.866;2022-08-19T01:12:06;14.63;;;11.90;;
13933;SDS011;7039;52.168;9.866;2022-08-19T01:14:36;19.43;;;12.97;;
13933;SDS011;7039;52.168;9.866;2022-08-19T01:17:05;17.10;;;11.77;;
13933;SDS011;7039;52.168;9.866;2022-08-19T01:19:38;17.10;;;12.60;;
13933;SDS011;7039;52.168;9.866;2022-08-19T01:22:08;20.27;;;12.37;;
13933;SDS011;7039;52.168;9.866;2022-08-19T01:24:39;20.40;;;13.20;;
13933;SDS011;7039;52.168;9.866;2022-08-19T01:27:07;19.53;;;12.43;;
13933;SDS011;7039;52.168;9.866;2022-08-19T01:29:34;19.87;;;13.80;;
13933;SDS011;7039;52.168;9.866;2022-08-19T01:32:04;23.17;;;14.30;;
13933;SDS011;7039;52.168;9.866;2022-08-19T01:34:31;14.73;;;11.57;;
13933;SDS011;7039;52.168;9.866;2022-08-19T01:36:59;21.30;;;13.00;;
13933;SDS011;7039;52.168;9.866;2022-08-19T01:39:26;21.07;;;12.50;;
13933;SDS011;7039;52.168;9.866;2022-08-19T01:41:54;21.17;;;12.13;;
13933;SDS011;7039;52.168;9.866;2022-08-19T01:44:21;23.27;;;13.23;;
13933;SDS011;7039;52.168;9.866;2022-08-19T01:46:50;17.77;;;12.30;;
13933;SDS011;7039;52.168;9.866;2022-08-19T01:49:18;22.30;;;13.57;;
13933;SDS011;7039;52.168;9.866;2022-08-19T01:51:47;19.73;;;12.83;;
13933;SDS011;7039;52.168;9.866;2022-08-19T01:54:14;19.03;;;12.50;;
13933;SDS011;7039;52.168;9.866;2022-08-19T01:56:43;21.33;;;13.37;;
13933;SDS011;7039;52.168;9.866;2022-08-19T01:59:12;21.23;;;11.90;;
13933;SDS011;7039;52.168;9.866;2022-08-19T02:01:42;20.17;;;13.13;;
13933;SDS011;7039;52.168;9.866;2022-08-19T02:04:08;19.90;;;13.33;;
13933;SDS011;7039;52.168;9.866;2022-08-19T02:06:35;19.87;;;13.30;;
13933;SDS011;7039;52.168;9.866;2022-08-19T02:09:03;17.43;;;12.47;;
13933;SDS011;7039;52.168;9.866;2022-08-19T02:11:31;21.90;;;12.97;;
13933;SDS011;7039;52.168;9.866;2022-08-19T02:14:00;16.87;;;12.83;;
13933;SDS011;7039;52.168;9.866;2022-08-19T02:16:29;17.83;;;13.10;;
13933;SDS011;7039;52.168;9.866;2022-08-19T02:18:56;17.17;;;12.90;;
13933;SDS011;7039;52.168;9.866;2022-08-19T02:21:23;21.90;;;12.53;;
13933;SDS011;7039;52.168;9.866;2022-08-19T02:23:50;21.13;;;12.80;;
13933;SDS011;7039;52.168;9.866;2022-08-19T02:26:17;24.80;;;13.80;;
13933;SDS011;7039;52.168;9.866;2022-08-19T02:28:44;20.47;;;13.60;;
13933;SDS011;7039;52.168;9.866;2022-08-19T02:31:14;22.53;;;13.70;;
13933;SDS011;7039;52.168;9.866;2022-08-19T02:33:44;18.57;;;13.73;;
13933;SDS011;7039;52.168;9.866;2022-08-19T02:36:12;16.70;;;13.57;;
13933;SDS011;7039;52.168;9.866;2022-08-19T02:38:40;21.73;;;14.87;;
13933;SDS011;7039;52.168;9.866;2022-08-19T02:41:06;22.10;;;13.87;;
13933;SDS011;7039;52.168;9.866;2022-08-19T02:43:38;23.33;;;15.73;;
13933;SDS011;7039;52.168;9.866;2022-08-19T02:46:10;20.40;;;13.30;;
13933;SDS011;7039;52.168;9.866;2022-08-19T02:48:38;20.87;;;14.37;;
13933;SDS011;7039;52.168;9.866;2022-08-19T02:51:07;19.27;;;13.13;;
13933;SDS011;7039;52.168;9.866;2022-08-19T02:53:33;21.40;;;13.17;;
13933;SDS011;7039;52.168;9.866;2022-08-19T02:56:00;20.07;;;13.90;;
13933;SDS011;7039;52.168;9.866;2022-08-19T02:58:26;19.17;;;13.53;;
13933;SDS011;7039;52.168;9.866;2022-08-19T03:00:54;26.07;;;15.10;;
13933;SDS011;7039;52.168;9.866;2022-08-19T03:03:21;21.67;;;14.60;;
13933;SDS011;7039;52.168;9.866;2022-08-19T03:05:48;24.47;;;15.03;;
13933;SDS011;7039;52.168;9.866;2022-08-19T03:08:16;19.73;;;14.27;;
13933;SDS011;7039;52.168;9.866;2022-08-19T03:10:43;21.77;;;15.37;;
13933;SDS011;7039;52.168;9.866;2022-08-19T03:13:12;19.00;;;13.70;;
13933;SDS011;7039;52.168;9.866;2022-08-19T03:15:41;24.90;;;15.27;;
13933;SDS011;7039;52.168;9.866;2022-08-19T03:18:08;19.33;;;14.30;;
13933;SDS011;7039;52.168;9.866;2022-08-19T03:20:39;21.57;;;15.27;;
13933;SDS011;7039;52.168;9.866;2022-08-19T03:23:07;24.37;;;14.23;;
13933;SDS011;7039;52.168;9.866;2022-08-19T03:25:37;22.27;;;14.27;;
13933;SDS011;7039;52.168;9.866;2022-08-19T03:28:05;19.47;;;13.57;;
13933;SDS011;7039;52.168;9.866;2022-08-19T03:30:32;27.13;;;14.80;;
13933;SDS011;7039;52.168;9.866;2022-08-19T03:32:58;23.60;;;14.83;;
13933;SDS011;7039;52.168;9.866;2022-08-19T03:35:25;23.80;;;15.50;;
13933;SDS011;7039;52.168;9.866;2022-08-19T03:37:52;27.47;;;15.50;;
13933;SDS011;7039;52.168;9.866;2022-08-19T03:40:18;24.20;;;15.13;;
13933;SDS011;7039;52.168;9.866;2022-08-19T03:42:46;24.60;;;15.57;;
13933;SDS011;7039;52.168;9.866;2022-08-19T03:45:15;23.23;;;14.80;;
13933;SDS011;7039;52.168;9.866;2022-08-19T03:47:41;22.37;;;15.40;;
13933;SDS011;7039;52.168;9.866;2022-08-19T03:50:08;20.13;;;15.13;;
13933;SDS011;7039;52.168;9.866;2022-08-19T03:52:35;22.50;;;15.53;;
13933;SDS011;7039;52.168;9.866;2022-08-19T03:55:02;26.77;;;14.43;;
13933;SDS011;7039;52.168;9.866;2022-08-19T03:57:29;25.03;;;16.07;;
13933;SDS011;7039;52.168;9.866;2022-08-19T03:59:58;25.50;;;15.67;;
13933;SDS011;7039;52.168;9.866;2022-08-19T04:02:25;25.30;;;15.77;;
13933;SDS011;7039;52.168;9.866;2022-08-19T04:04:53;22.73;;;15.50;;
13933;SDS011;7039;52.168;9.866;2022-08-19T04:07:20;23.77;;;15.63;;
13933;SDS011;7039;52.168;9.866;2022-08-19T04:09:46;25.47;;;15.47;;
13933;SDS011;7039;52.168;9.866;2022-08-19T04:12:13;24.57;;;16.33;;
13933;SDS011;7039;52.168;9.866;2022-08-19T04:14:40;21.87;;;16.53;;
13933;SDS011;7039;52.168;9.866;2022-08-19T04:17:08;24.57;;;15.80;;
13933;SDS011;7039;52.168;9.866;2022-08-19T04:19:35;24.77;;;15.30;;
13933;SDS011;7039;52.168;9.866;2022-08-19T04:22:03;20.17;;;13.73;;
13933;SDS011;7039;52.168;9.866;2022-08-19T04:24:31;25.13;;;15.57;;
13933;SDS011;7039;52.168;9.866;2022-08-19T04:26:58;26.70;;;15.63;;
13933;SDS011;7039;52.168;9.866;2022-08-19T04:29:25;24.90;;;14.70;;
13933;SDS011;7039;52.168;9.866;2022-08-19T04:31:52;32.10;;;15.07;;
13933;SDS011;7039;52.168;9.866;2022-08-19T04:34:23;26.90;;;13.87;;
13933;SDS011;7039;52.168;9.866;2022-08-19T04:36:55;32.30;;;15.53;;
13933;SDS011;7039;52.168;9.866;2022-08-19T04:39:24;23.33;;;14.47;;
13933;SDS011;7039;52.168;9.866;2022-08-19T04:42:12;23.93;;;13.70;;
13933;SDS011;7039;52.168;9.866;2022-08-19T04:44:57;21.70;;;14.00;;
13933;SDS011;7039;52.168;9.866;2022-08-19T04:47:24;23.97;;;13.90;;
13933;SDS011;7039;52.168;9.866;2022-08-19T04:49:52;21.23;;;13.87;;
13933;SDS011;7039;52.168;9.866;2022-08-19T04:52:19;21.40;;;14.57;;
13933;SDS011;7039;52.168;9.866;2022-08-19T04:54:45;22.33;;;13.53;;
13933;SDS011;7039;52.168;9.866;2022-08-19T04:57:13;25.33;;;13.67;;
13933;SDS011;7039;52.168;9.866;2022-08-19T04:59:40;23.27;;;14.03;;
13933;SDS011;7039;52.168;9.866;2022-08-19T05:02:07;21.63;;;13.37;;
13933;SDS011;7039;52.168;9.866;2022-08-19T05:04:34;18.87;;;13.50;;
13933;SDS011;7039;52.168;9.866;2022-08-19T05:07:05;28.13;;;14.67;;
13933;SDS011;7039;52.168;9.866;2022-08-19T05:09:32;19.17;;;12.90;;
13933;SDS011;7039;52.168;9.866;2022-08-19T05:11:59;19.30;;;12.43;;
13933;SDS011;7039;52.168;9.866;2022-08-19T05:14:25;20.97;;;12.33;;
13933;SDS011;7039;52.168;9.866;2022-08-19T05:16:52;22.13;;;12.33;;
13933;SDS011;7039;52.168;9.866;2022-08-19T05:19:18;16.93;;;12.53;;
13933;SDS011;7039;52.168;9.866;2022-08-19T05:22:02;22.13;;;11.87;;
13933;SDS011;7039;52.168;9.866;2022-08-19T05:24:48;18.43;;;11.43;;
13933;SDS011;7039;52.168;9.866;2022-08-19T05:27:14;17.93;;;11.67;;
13933;SDS011;7039;52.168;9.866;2022-08-19T05:29:41;16.40;;;11.40;;
13933;SDS011;7039;52.168;9.866;2022-08-19T05:32:07;16.93;;;11.23;;
13933;SDS011;7039;52.168;9.866;2022-08-19T05:34:35;17.70;;;11.93;;
13933;SDS011;7039;52.168;9.866;2022-08-19T05:37:04;15.43;;;10.57;;
13933;SDS011;7039;52.168;9.866;2022-08-19T05:39:33;21.63;;;10.43;;
13933;SDS011;7039;52.168;9.866;2022-08-19T05:42:03;17.97;;;10.57;;
13933;SDS011;7039;52.168;9.866;2022-08-19T05:44:33;17.63;;;10.17;;
13933;SDS011;7039;52.168;9.866;2022-08-19T05:47:03;14.80;;;10.83;;
13933;SDS011;7039;52.168;9.866;2022-08-19T05:49:31;13.73;;;10.63;;
13933;SDS011;7039;52.168;9.866;2022-08-19T05:52:01;20.93;;;11.33;;
13933;SDS011;7039;52.168;9.866;2022-08-19T05:54:29;18.03;;;11.23;;
13933;SDS011;7039;52.168;9.866;2022-08-19T05:56:56;17.07;;;10.63;;
13933;SDS011;7039;52.168;9.866;2022-08-19T05:59:24;14.10;;;10.03;;
13933;SDS011;7039;52.168;9.866;2022-08-19T06:01:51;16.13;;;10.03;;
13933;SDS011;7039;52.168;9.866;2022-08-19T06:04:19;20.83;;;10.93;;
13933;SDS011;7039;52.168;9.866;2022-08-19T06:06:46;16.17;;;9.83;;
13933;SDS011;7039;52.168;9.866;2022-08-19T06:09:15;12.17;;;9.77;;
13933;SDS011;7039;52.168;9.866;2022-08-19T06:11:42;20.07;;;12.40;;
13933;SDS011;7039;52.168;9.866;2022-08-19T06:14:11;16.43;;;11.43;;
13933;SDS011;7039;52.168;9.866;2022-08-19T06:16:40;17.70;;;11.50;;
13933;SDS011;7039;52.168;9.866;2022-08-19T06:19:09;20.83;;;13.10;;
13933;SDS011;7039;52.168;9.866;2022-08-19T06:21:39;22.00;;;11.73;;
13933;SDS011;7039;52.168;9.866;2022-08-19T06:24:09;19.20;;;12.37;;
13933;SDS011;7039;52.168;9.866;2022-08-19T06:26:38;19.27;;;11.53;;
13933;SDS011;7039;52.168;9.866;2022-08-19T06:29:07;23.13;;;13.20;;
13933;SDS011;7039;52.168;9.866;2022-08-19T06:31:35;18.30;;;12.67;;
13933;SDS011;7039;52.168;9.866;2022-08-19T06:34:04;19.20;;;12.93;;
13933;SDS011;7039;52.168;9.866;2022-08-19T06:36:32;22.50;;;13.67;;
13933;SDS011;7039;52.168;9.866;2022-08-19T06:39:01;22.37;;;12.53;;
13933;SDS011;7039;52.168;9.866;2022-08-19T06:41:29;18.17;;;12.40;;
13933;SDS011;7039;52.168;9.866;2022-08-19T06:43:57;20.13;;;12.73;;
13933;SDS011;7039;52.168;9.866;2022-08-19T06:46:23;16.30;;;11.27;;
13933;SDS011;7039;52.168;9.866;2022-08-19T06:48:51;21.60;;;13.83;;
13933;SDS011;7039;52.168;9.866;2022-08-19T06:51:21;23.33;;;14.63;;
13933;SDS011;7039;52.168;9.866;2022-08-19T06:53:49;24.13;;;14.70;;
13933;SDS011;7039;52.168;9.866;2022-08-19T06:56:19;20.00;;;14.70;;
13933;SDS011;7039;52.168;9.866;2022-08-19T06:58:55;24.17;;;14.77;;
13933;SDS011;7039;52.168;9.866;2022-08-19T07:01:22;20.67;;;14.77;;
13933;SDS011;7039;52.168;9.866;2022-08-19T07:03:48;25.47;;;15.13;;
13933;SDS011;7039;52.168;9.866;2022-08-19T07:06:16;23.37;;;15.13;;
13933;SDS011;7039;52.168;9.866;2022-08-19T07:08:46;20.80;;;14.23;;
13933;SDS011;7039;52.168;9.866;2022-08-19T07:11:14;25.00;;;15.43;;
13933;SDS011;7039;52.168;9.866;2022-08-19T07:13:43;24.47;;;16.73;;
13933;SDS011;7039;52.168;9.866;2022-08-19T07:16:12;23.33;;;15.57;;
13933;SDS011;7039;52.168;9.866;2022-08-19T07:18:40;20.70;;;14.33;;
13933;SDS011;7039;52.168;9.866;2022-08-19T07:21:08;25.37;;;17.20;;
13933;SDS011;7039;52.168;9.866;2022-08-19T07:23:36;26.20;;;17.23;;
13933;SDS011;7039;52.168;9.866;2022-08-19T07:26:07;23.53;;;16.03;;
13933;SDS011;7039;52.168;9.866;2022-08-19T07:28:34;21.33;;;15.83;;
13933;SDS011;7039;52.168;9.866;2022-08-19T07:31:04;20.87;;;14.03;;
13933;SDS011;7039;52.168;9.866;2022-08-19T07:33:31;24.97;;;15.43;;
13933;SDS011;7039;52.168;9.866;2022-08-19T07:35:58;21.67;;;14.03;;
13933;SDS011;7039;52.168;9.866;2022-08-19T07:38:25;19.77;;;13.33;;
13933;SDS011;7039;52.168;9.866;2022-08-19T07:40:52;20.13;;;14.60;;
13933;SDS011;7039;52.168;9.866;2022-08-19T07:43:20;22.27;;;15.47;;
13933;SDS011;7039;52.168;9.866;2022-08-19T07:45:50;21.97;;;15.30;;
13933;SDS011;7039;52.168;9.866;2022-08-19T07:48:17;25.33;;;14.97;;
13933;SDS011;7039;52.168;9.866;2022-08-19T07:50:43;22.23;;;15.17;;
13933;SDS011;7039;52.168;9.866;2022-08-19T07:53:10;24.43;;;15.80;;
13933;SDS011;7039;52.168;9.866;2022-08-19T07:55:38;19.03;;;13.47;;
13933;SDS011;7039;52.168;9.866;2022-08-19T07:58:04;22.10;;;15.40;;
13933;SDS011;7039;52.168;9.866;2022-08-19T08:00:32;22.00;;;16.27;;
13933;SDS011;7039;52.168;9.866;2022-08-19T08:03:00;22.43;;;16.17;;
13933;SDS011;7039;52.168;9.866;2022-08-19T08:05:26;21.87;;;16.20;;
13933;SDS011;7039;52.168;9.866;2022-08-19T08:08:11;23.57;;;16.40;;
13933;SDS011;7039;52.168;9.866;2022-08-19T08:10:55;23.97;;;16.77;;
13933;SDS011;7039;52.168;9.866;2022-08-19T08:13:22;20.20;;;15.33;;
13933;SDS011;7039;52.168;9.866;2022-08-19T08:15:50;21.70;;;15.43;;
13933;SDS011;7039;52.168;9.866;2022-08-19T08:18:16;16.33;;;13.27;;
13933;SDS011;7039;52.168;9.866;2022-08-19T08:20:43;17.43;;;15.27;;
13933;SDS011;7039;52.168;9.866;2022-08-19T08:23:10;17.73;;;13.83;;
13933;SDS011;7039;52.168;9.866;2022-08-19T08:25:50;19.27;;;14.10;;
13933;SDS011;7039;52.168;9.866;2022-08-19T08:28:17;19.23;;;14.57;;
13933;SDS011;7039;52.168;9.866;2022-08-19T08:30:45;20.50;;;14.97;;
13933;SDS011;7039;52.168;9.866;2022-08-19T08:33:14;15.83;;;14.03;;
13933;SDS011;7039;52.168;9.866;2022-08-19T08:35:44;18.43;;;13.60;;
13933;SDS011;7039;52.168;9.866;2022-08-19T08:38:10;14.33;;;9.87;;
13933;SDS011;7039;52.168;9.866;2022-08-19T08:40:39;14.43;;;10.67;;
13933;SDS011;7039;52.168;9.866;2022-08-19T08:43:13;11.87;;;10.03;;
13933;SDS011;7039;52.168;9.866;2022-08-19T08:45:49;15.17;;;11.47;;
13933;SDS011;7039;52.168;9.866;2022-08-19T08:48:22;19.13;;;13.73;;
13933;SDS011;7039;52.168;9.866;2022-08-19T08:50:57;17.73;;;14.50;;
13933;SDS011;7039;52.168;9.866;2022-08-19T08:53:27;16.13;;;12.50;;
13933;SDS011;7039;52.168;9.866;2022-08-19T08:55:55;15.80;;;12.30;;
13933;SDS011;7039;52.168;9.866;2022-08-19T08:58:24;19.87;;;12.40;;
13933;SDS011;7039;52.168;9.866;2022-08-19T09:00:55;13.60;;;10.93;;
13933;SDS011;7039;52.168;9.866;2022-08-19T09:03:24;17.17;;;11.27;;
13933;SDS011;7039;52.168;9.866;2022-08-19T09:05:56;10.73;;;8.57;;
13933;SDS011;7039;52.168;9.866;2022-08-19T09:08:29;13.80;;;9.37;;
13933;SDS011;7039;52.168;9.866;2022-08-19T09:11:06;10.67;;;8.57;;
13933;SDS011;7039;52.168;9.866;2022-08-19T09:13:37;12.40;;;8.97;;
13933;SDS011;7039;52.168;9.866;2022-08-19T09:16:12;11.50;;;8.13;;
13933;SDS011;7039;52.168;9.866;2022-08-19T09:18:44;11.33;;;9.17;;
13933;SDS011;7039;52.168;9.866;2022-08-19T09:21:12;8.10;;;6.57;;
13933;SDS011;7039;52.168;9.866;2022-08-19T09:23:39;7.03;;;6.13;;
13933;SDS011;7039;52.168;9.866;2022-08-19T09:26:06;8.20;;;6.90;;
13933;SDS011;7039;52.168;9.866;2022-08-19T09:28:34;8.17;;;6.20;;
13933;SDS011;7039;52.168;9.866;2022-08-19T09:31:02;8.23;;;5.90;;
13933;SDS011;7039;52.168;9.866;2022-08-19T09:33:28;7.17;;;5.80;;
13933;SDS011;7039;52.168;9.866;2022-08-19T09:36:04;7.63;;;6.23;;
13933;SDS011;7039;52.168;9.866;2022-08-19T09:38:32;8.43;;;5.90;;
13933;SDS011;7039;52.168;9.866;2022-08-19T09:41:03;8.00;;;6.10;;
13933;SDS011;7039;52.168;9.866;2022-08-19T09:43:30;8.93;;;6.63;;
13933;SDS011;7039;52.168;9.866;2022-08-19T09:45:57;8.73;;;7.37;;
13933;SDS011;7039;52.168;9.866;2022-08-19T09:48:25;11.47;;;7.77;;
13933;SDS011;7039;52.168;9.866;2022-08-19T09:50:52;8.73;;;7.60;;
13933;SDS011;7039;52.168;9.866;2022-08-19T09:53:19;11.83;;;7.97;;
13933;SDS011;7039;52.168;9.866;2022-08-19T09:55:47;10.07;;;7.07;;
13933;SDS011;7039;52.168;9.866;2022-08-19T09:58:14;8.17;;;6.30;;
13933;SDS011;7039;52.168;9.866;2022-08-19T10:00:40;9.20;;;7.17;;
13933;SDS011;7039;52.168;9.866;2022-08-19T10:03:07;9.47;;;7.53;;
13933;SDS011;7039;52.168;9.866;2022-08-19T10:05:33;8.73;;;6.90;;
13933;SDS011;7039;52.168;9.866;2022-08-19T10:08:16;11.03;;;8.03;;
13933;SDS011;7039;52.168;9.866;2022-08-19T10:10:47;10.60;;;6.13;;
13933;SDS011;7039;52.168;9.866;2022-08-19T10:13:16;9.23;;;6.90;;
13933;SDS011;7039;52.168;9.866;2022-08-19T10:15:46;7.83;;;5.30;;
13933;SDS011;7039;52.168;9.866;2022-08-19T10:18:15;8.33;;;5.17;;
13933;SDS011;7039;52.168;9.866;2022-08-19T10:20:43;5.63;;;4.37;;
13933;SDS011;7039;52.168;9.866;2022-08-19T10:23:10;7.07;;;4.37;;
13933;SDS011;7039;52.168;9.866;2022-08-19T10:25:37;9.00;;;4.00;;
13933;SDS011;7039;52.168;9.866;2022-08-19T10:28:05;7.33;;;4.43;;
13933;SDS011;7039;52.168;9.866;2022-08-19T10:30:32;8.93;;;4.90;;
13933;SDS011;7039;52.168;9.866;2022-08-19T10:32:59;8.73;;;4.27;;
13933;SDS011;7039;52.168;9.866;2022-08-19T10:35:25;5.83;;;4.13;;
13933;SDS011;7039;52.168;9.866;2022-08-19T10:37:54;5.70;;;3.93;;
13933;SDS011;7039;52.168;9.866;2022-08-19T10:40:23;4.40;;;3.50;;
13933;SDS011;7039;52.168;9.866;2022-08-19T10:42:50;6.97;;;3.47;;
13933;SDS011;7039;52.168;9.866;2022-08-19T10:45:18;4.40;;;3.40;;
13933;SDS011;7039;52.168;9.866;2022-08-19T10:47:47;9.13;;;3.03;;
13933;SDS011;7039;52.168;9.866;2022-08-19T10:50:13;4.13;;;3.53;;
13933;SDS011;7039;52.168;9.866;2022-08-19T10:52:57;3.90;;;2.70;;
13933;SDS011;7039;52.168;9.866;2022-08-19T10:55:30;4.23;;;2.67;;
13933;SDS011;7039;52.168;9.866;2022-08-19T10:58:14;2.87;;;2.67;;
13933;SDS011;7039;52.168;9.866;2022-08-19T11:00:50;2.80;;;2.40;;
13933;SDS011;7039;52.168;9.866;2022-08-19T11:03:18;3.50;;;2.13;;
13933;SDS011;7039;52.168;9.866;2022-08-19T11:05:45;3.13;;;2.10;;
13933;SDS011;7039;52.168;9.866;2022-08-19T11:08:13;2.97;;;2.30;;
13933;SDS011;7039;52.168;9.866;2022-08-19T11:10:41;5.27;;;2.50;;
13933;SDS011;7039;52.168;9.866;2022-08-19T11:13:07;3.97;;;2.63;;
13933;SDS011;7039;52.168;9.866;2022-08-19T11:15:34;2.83;;;2.33;;
13933;SDS011;7039;52.168;9.866;2022-08-19T11:18:02;2.60;;;1.90;;
13933;SDS011;7039;52.168;9.866;2022-08-19T11:20:28;1.87;;;1.50;;
13933;SDS011;7039;52.168;9.866;2022-08-19T11:22:56;4.33;;;1.70;;
13933;SDS011;7039;52.168;9.866;2022-08-19T11:25:22;3.10;;;1.97;;
13933;SDS011;7039;52.168;9.866;2022-08-19T11:27:49;2.37;;;1.70;;
13933;SDS011;7039;52.168;9.866;2022-08-19T11:30:17;5.30;;;1.87;;
13933;SDS011;7039;52.168;9.866;2022-08-19T11:32:43;4.13;;;2.40;;
13933;SDS011;7039;52.168;9.866;2022-08-19T11:35:11;3.40;;;2.30;;
13933;SDS011;7039;52.168;9.866;2022-08-19T11:37:38;2.10;;;1.60;;
13933;SDS011;7039;52.168;9.866;2022-08-19T11:40:06;7.20;;;1.80;;
13933;SDS011;7039;52.168;9.866;2022-08-19T11:42:33;3.23;;;2.20;;
13933;SDS011;7039;52.168;9.866;2022-08-19T11:45:17;2.07;;;1.60;;
13933;SDS011;7039;52.168;9.866;2022-08-19T11:47:43;3.73;;;1.90;;
13933;SDS011;7039;52.168;9.866;2022-08-19T11:50:12;2.67;;;2.42;;
13933;SDS011;7039;52.168;9.866;2022-08-19T11:52:39;2.80;;;2.10;;
13933;SDS011;7039;52.168;9.866;2022-08-19T11:55:06;2.67;;;2.30;;
13933;SDS011;7039;52.168;9.866;2022-08-19T11:57:33;4.05;;;2.17;;
13933;SDS011;7039;52.168;9.866;2022-08-19T12:00:00;4.22;;;2.50;;
13933;SDS011;7039;52.168;9.866;2022-08-19T12:02:28;2.42;;;2.00;;
13933;SDS011;7039;52.168;9.866;2022-08-19T12:04:54;4.03;;;2.35;;
13933;SDS011;7039;52.168;9.866;2022-08-19T12:07:22;3.42;;;2.00;;
13933;SDS011;7039;52.168;9.866;2022-08-19T12:09:49;2.67;;;2.13;;
13933;SDS011;7039;52.168;9.866;2022-08-19T12:12:16;4.65;;;2.38;;
13933;SDS011;7039;52.168;9.866;2022-08-19T12:14:42;3.55;;;1.92;;
13933;SDS011;7039;52.168;9.866;2022-08-19T12:17:09;2.35;;;1.83;;
13933;SDS011;7039;52.168;9.866;2022-08-19T12:19:36;3.10;;;2.13;;
13933;SDS011;7039;52.168;9.866;2022-08-19T12:22:04;2.38;;;1.95;;
13933;SDS011;7039;52.168;9.866;2022-08-19T12:24:33;6.47;;;1.77;;
13933;SDS011;7039;52.168;9.866;2022-08-19T12:27:00;2.92;;;2.00;;
13933;SDS011;7039;52.168;9.866;2022-08-19T12:29:27;3.13;;;1.70;;
13933;SDS011;7039;52.168;9.866;2022-08-19T12:31:54;2.22;;;1.80;;
13933;SDS011;7039;52.168;9.866;2022-08-19T12:34:25;2.47;;;2.20;;
13933;SDS011;7039;52.168;9.866;2022-08-19T12:36:54;2.65;;;2.10;;
13933;SDS011;7039;52.168;9.866;2022-08-19T12:39:21;1.75;;;1.65;;
13933;SDS011;7039;52.168;9.866;2022-08-19T12:41:49;2.65;;;1.75;;
13933;SDS011;7039;52.168;9.866;2022-08-19T12:44:16;4.20;;;2.08;;
13933;SDS011;7039;52.168;9.866;2022-08-19T12:46:43;2.58;;;1.90;;
13933;SDS011;7039;52.168;9.866;2022-08-19T12:49:09;2.00;;;1.80;;
13933;SDS011;7039;52.168;9.866;2022-08-19T12:51:36;5.32;;;1.92;;
13933;SDS011;7039;52.168;9.866;2022-08-19T12:54:03;3.60;;;1.83;;
13933;SDS011;7039;52.168;9.866;2022-08-19T12:56:30;2.13;;;1.80;;
13933;SDS011;7039;52.168;9.866;2022-08-19T12:59:02;4.28;;;1.98;;
13933;SDS011;7039;52.168;9.866;2022-08-19T13:01:29;2.35;;;2.15;;
13933;SDS011;7039;52.168;9.866;2022-08-19T13:03:57;2.92;;;1.80;;
13933;SDS011;7039;52.168;9.866;2022-08-19T13:06:24;2.53;;;1.92;;
13933;SDS011;7039;52.168;9.866;2022-08-19T13:08:51;4.90;;;2.03;;
13933;SDS011;7039;52.168;9.866;2022-08-19T13:11:18;2.50;;;1.75;;
13933;SDS011;7039;52.168;9.866;2022-08-19T13:13:48;2.38;;;1.50;;
13933;SDS011;7039;52.168;9.866;2022-08-19T13:16:17;1.75;;;1.60;;
13933;SDS011;7039;52.168;9.866;2022-08-19T13:18:45;5.90;;;1.75;;
13933;SDS011;7039;52.168;9.866;2022-08-19T13:21:13;1.98;;;1.77;;
13933;SDS011;7039;52.168;9.866;2022-08-19T13:23:40;1.80;;;1.70;;
13933;SDS011;7039;52.168;9.866;2022-08-19T13:26:07;2.22;;;2.03;;
13933;SDS011;7039;52.168;9.866;2022-08-19T13:28:36;2.83;;;1.85;;
13933;SDS011;7039;52.168;9.866;2022-08-19T13:31:22;2.28;;;1.83;;
13933;SDS011;7039;52.168;9.866;2022-08-19T13:34:07;5.03;;;1.80;;
13933;SDS011;7039;52.168;9.866;2022-08-19T13:36:35;4.47;;;1.95;;
13933;SDS011;7039;52.168;9.866;2022-08-19T13:39:02;2.60;;;1.80;;
13933;SDS011;7039;52.168;9.866;2022-08-19T13:41:29;2.20;;;1.95;;
13933;SDS011;7039;52.168;9.866;2022-08-19T13:43:56;2.10;;;1.90;;
13933;SDS011;7039;52.168;9.866;2022-08-19T13:46:24;2.78;;;1.95;;
13933;SDS011;7039;52.168;9.866;2022-08-19T13:48:51;1.88;;;1.70;;
13933;SDS011;7039;52.168;9.866;2022-08-19T13:51:21;2.15;;;1.95;;
13933;SDS011;7039;52.168;9.866;2022-08-19T13:53:49;2.17;;;1.80;;
13933;SDS011;7039;52.168;9.866;2022-08-19T13:56:17;1.92;;;1.70;;
13933;SDS011;7039;52.168;9.866;2022-08-19T13:58:45;5.85;;;1.63;;
13933;SDS011;7039;52.168;9.866;2022-08-19T14:01:12;2.33;;;1.85;;
13933;SDS011;7039;52.168;9.866;2022-08-19T14:03:46;2.33;;;1.60;;
13933;SDS011;7039;52.168;9.866;2022-08-19T14:06:12;3.17;;;1.52;;
13933;SDS011;7039;52.168;9.866;2022-08-19T14:08:38;2.00;;;1.63;;
13933;SDS011;7039;52.168;9.866;2022-08-19T14:11:06;4.20;;;1.90;;
13933;SDS011;7039;52.168;9.866;2022-08-19T14:13:33;5.00;;;1.50;;
13933;SDS011;7039;52.168;9.866;2022-08-19T14:15:59;1.83;;;1.55;;
13933;SDS011;7039;52.168;9.866;2022-08-19T14:18:27;3.60;;;1.40;;
13933;SDS011;7039;52.168;9.866;2022-08-19T14:20:54;1.60;;;1.50;;
13933;SDS011;7039;52.168;9.866;2022-08-19T14:23:21;4.15;;;1.80;;
13933;SDS011;7039;52.168;9.866;2022-08-19T14:25:48;1.80;;;1.40;;
13933;SDS011;7039;52.168;9.866;2022-08-19T14:28:14;3.35;;;1.40;;
13933;SDS011;7039;52.168;9.866;2022-08-19T14:30:41;1.77;;;1.23;;
13933;SDS011;7039;52.168;9.866;2022-08-19T14:33:09;2.05;;;1.40;;
13933;SDS011;7039;52.168;9.866;2022-08-19T14:35:36;1.67;;;1.40;;
13933;SDS011;7039;52.168;9.866;2022-08-19T14:38:05;1.85;;;1.48;;
13933;SDS011;7039;52.168;9.866;2022-08-19T14:40:33;2.35;;;1.40;;
13933;SDS011;7039;52.168;9.866;2022-08-19T14:43:00;1.70;;;1.60;;
13933;SDS011;7039;52.168;9.866;2022-08-19T14:45:29;2.30;;;1.50;;
13933;SDS011;7039;52.168;9.866;2022-08-19T14:47:57;1.77;;;1.42;;
13933;SDS011;7039;52.168;9.866;2022-08-19T14:50:25;2.38;;;1.40;;
13933;SDS011;7039;52.168;9.866;2022-08-19T14:52:57;1.50;;;1.40;;